Flight Track Log - Related Links

Times and Time Zones

All times are in EDT time to prevent confusion due to time zone crossing. See the JZA7995 flight status page for this flight to view local times or setup timezone preferences in your user account.

Time Position Orientation Groundspeed Altitude Reporting Facility
EDT Latitude Longitude Course Direction KTS MPH feet Rate Location/Type
Wed 07:39:21 PM 43.6667 -79.5833 360° North 10 12 500  Level Toronto Center
Wed 07:41:21 PM 43.6667 -79.5833 216° Southwest 10 12 500  Level Toronto Center
Wed 07:42:21 PM 43.6667 -79.6167 270° West 10 12 500  Level Toronto Center
Wed 07:45:17 PM 43.6667 -79.6167 144° Southeast 40 46 500  Level Toronto Center
Wed 07:46:43 PM 43.6833 -79.6167 360° North 20 23 500  Level Toronto Center
Wed 07:47:43 PM 43.6833 -79.6333 270° West 20 23 500  Level Toronto Center
Wed 07:48:43 PM 43.6667 -79.6333 180° South 20 23 500  Level Toronto Center
Wed 07:49:43 PM 43.6667 -79.6333 180° South 30 35 500  Level Toronto Center
Wed 07:50:43 PM 43.6667 -79.6333 216° Southwest 10 12 500  Level Toronto Center
Wed 07:52:43 PM 43.6667 -79.6333 216° Southwest 90 104 500 700 Level Toronto Center
Wed 07:53:43 PM 43.7167 -79.5833 36° Northeast 170 196 2,600 2,450 Climbing Toronto Center
Wed 07:54:43 PM 43.7667 -79.5833 360° North 210 242 5,400 2,150 Climbing Toronto Center
Wed 07:55:43 PM 43.7833 -79.6833 283° West 260 299 6,900 800 Climbing Toronto Center
Wed 07:56:43 PM 43.7833 -79.7667 270° West 260 299 7,000 450 Climbing Toronto Center
Wed 07:57:43 PM 43.7833 -79.8667 270° West 260 299 7,800 2,050 Climbing Toronto Center
Wed 07:58:43 PM 43.7667 -79.9833 259° West 260 299 11,100 2,250 Climbing Toronto Center
Wed 07:59:43 PM 43.7667 -80.1000 270° West 290 334 12,300 1,250 Climbing Toronto Center
Wed 08:00:43 PM 43.7500 -80.2333 260° West 350 403 13,600 1,850 Climbing Toronto Center
Wed 08:01:43 PM 43.7000 -80.3500 239° Southwest 360 414 16,000 2,050 Climbing Toronto Center
Wed 08:02:43 PM 43.6333 -80.4667 232° Southwest 370 426 17,700 1,800 Climbing Toronto Center
Wed 08:03:43 PM 43.5833 -80.5833 239° Southwest 380 437 19,600 1,600 Climbing Toronto Center
Wed 08:04:43 PM 43.5167 -80.6833 227° Southwest 380 437 20,900 1,250 Climbing Toronto Center
Wed 08:05:43 PM 43.4333 -80.8333 233° Southwest 390 449 22,100 1,100 Climbing Toronto Center
Wed 08:06:43 PM 43.3667 -80.9333 227° Southwest 410 472 23,100 1,150 Climbing Toronto Center
Wed 08:07:43 PM 43.3000 -81.0833 239° Southwest 410 472 24,400 1,150 Climbing Toronto Center
Wed 08:08:43 PM 43.2500 -81.2167 243° Southwest 420 483 25,400 1,250 Climbing Toronto Center
Wed 08:09:43 PM 43.1667 -81.3500 229° Southwest 430 495 26,900 1,500 Climbing Toronto Center
Wed 08:10:43 PM 43.1000 -81.4833 236° Southwest 430 495 28,400 1,400 Climbing Toronto Center
Wed 08:11:43 PM 43.0500 -81.6000 240° Southwest 420 483 29,700 1,450 Climbing Toronto Center
Wed 08:12:43 PM 42.9667 -81.7333 230° Southwest 420 483 31,300 1,500 Climbing Toronto Center
Wed 08:13:43 PM 42.9167 -81.8667 243° Southwest 410 472 32,700 1,212 Climbing Toronto Center
Wed 08:14:27 PM 42.8708 -81.9542 234° Southwest 420 483 33,400 1,154 Climbing Cleveland Center
Wed 08:15:27 PM 42.8047 -82.0772 234° Southwest 409 471 34,700 1,100 Climbing Cleveland Center
Wed 08:16:27 PM 42.7406 -82.1975 234° Southwest 404 465 35,600 1,000 Climbing Cleveland Center
Wed 08:17:27 PM 42.6764 -82.3144 233° Southwest 404 465 36,700 1,050 Climbing Cleveland Center
Wed 08:18:27 PM 42.6142 -82.4311 234° Southwest 399 459 37,700 650 Climbing Cleveland Center
Wed 08:19:27 PM 42.5519 -82.5447 233° Southwest 399 459 38,000 150 Climbing Cleveland Center
Wed 08:20:27 PM 42.4872 -82.6639 234° Southwest 399 459 38,000 50 Level Cleveland Center
Wed 08:21:27 PM 42.4203 -82.7856 233° Southwest 404 465 38,100 50 Climbing Cleveland Center
Wed 08:22:27 PM 42.3578 -82.8986 233° Southwest 399 459 38,100  Level Cleveland Center
Wed 08:23:27 PM 42.2969 -83.0086 233° Southwest 393 452 38,100 -50 Level Cleveland Center
Wed 08:24:27 PM 42.2342 -83.1156 232° Southwest 380 437 38,000 -50 Descending Cleveland Center
Wed 08:25:27 PM 42.1731 -83.2364 236° Southwest 383 441 38,000  Level Cleveland Center
Wed 08:26:27 PM 42.1167 -83.3378 233° Southwest 396 456 38,000  Level Cleveland Center
Wed 08:27:27 PM 42.0492 -83.4550 232° Southwest 396 456 38,000  Level Cleveland Center
Wed 08:28:27 PM 41.9769 -83.5803 232° Southwest 402 463 38,000  Level Cleveland Center
Wed 08:29:39 PM 41.8967 -83.7075 230° Southwest 407 468 38,000  Level Cleveland Center
Wed 08:30:39 PM 41.8267 -83.8214 231° Southwest 407 468 38,000  Level Cleveland Center
Wed 08:32:37 PM 41.6833 -84.0594 231° Southwest 401 461 38,000  Level Chicago Center
Wed 08:33:38 PM 41.6125 -84.1736 230° Southwest 400 460 38,000  Level Chicago Center
Wed 08:34:39 PM 41.5408 -84.2853 229° Southwest 396 456 38,000  Level Chicago Center
Wed 08:35:41 PM 41.4422 -84.3675 212° Southwest 410 472 38,000  Level Chicago Center
Wed 08:36:42 PM 41.3453 -84.4486 212° Southwest 412 474 38,000  Level Chicago Center
Wed 08:37:43 PM 41.2469 -84.5286 211° Southwest 411 473 38,000  Level Chicago Center
Wed 08:38:45 PM 41.1483 -84.6114 212° Southwest 416 479 38,000  Level Chicago Center
Wed 08:39:46 PM 41.0489 -84.6922 212° Southwest 418 481 38,000  Level Chicago Center
Wed 08:40:47 PM 40.9506 -84.7725 212° Southwest 416 479 38,000  Level Chicago Center
Wed 08:41:49 PM 40.8486 -84.8558 212° Southwest 424 488 38,000  Level Chicago Center
Wed 08:42:50 PM 40.7269 -84.9539 211° Southwest 426 490 38,000  Level Chicago Center
Wed 08:43:51 PM 40.6256 -85.0375 212° Southwest 428 493 38,000  Level Chicago Center
Wed 08:44:22 PM 40.5822 -85.0733 212° Southwest 431 496 38,000  Level Indianapolis Center
Wed 08:45:24 PM 40.4789 -85.1544 211° Southwest 430 495 38,000  Level Indianapolis Center
Wed 08:45:54 PM 40.4194 -85.2019 211° Southwest 433 498 38,000  Level Chicago Center
Wed 08:46:25 PM 40.3747 -85.2394 213° Southwest 437 503 38,000 -65 Level Indianapolis Center
Wed 08:47:26 PM 40.2689 -85.3233 211° Southwest 440 506 37,900  Descending Indianapolis Center
Wed 08:48:28 PM 40.1636 -85.4064 211° Southwest 439 505 38,000 65 Climbing Indianapolis Center
Wed 08:48:58 PM 40.1058 -85.4514 211° Southwest 441 507 38,000  Level Chicago Center
Wed 08:49:29 PM 40.0397 -85.5047 212° Southwest 441 507 38,000  Level Indianapolis Center
Wed 08:50:30 PM 39.9336 -85.5881 211° Southwest 442 509 38,000  Level Indianapolis Center
Wed 08:51:32 PM 39.8275 -85.6714 211° Southwest 443 510 38,000  Level Indianapolis Center
Wed 08:52:33 PM 39.7228 -85.7536 211° Southwest 439 505 38,000  Level Indianapolis Center
Wed 08:53:34 PM 39.6242 -85.8619 220° Southwest 445 512 38,000  Level Indianapolis Center
Wed 08:54:36 PM 39.5617 -85.9956 239° Southwest 436 502 38,000  Level Indianapolis Center
Wed 08:55:37 PM 39.5042 -86.1336 242° Southwest 435 501 38,000  Level Indianapolis Center
Wed 08:56:38 PM 39.4461 -86.2694 241° Southwest 433 498 38,000  Level Indianapolis Center
Wed 08:57:39 PM 39.3886 -86.4067 242° Southwest 433 498 38,000  Level Indianapolis Center
Wed 08:58:40 PM 39.3308 -86.5447 242° Southwest 435 501 38,000  Level Indianapolis Center
Wed 08:59:42 PM 39.2731 -86.6811 241° Southwest 434 499 38,000  Level Indianapolis Center
Wed 09:00:43 PM 39.2153 -86.8156 241° Southwest 431 496 38,000  Level Indianapolis Center
Wed 09:01:44 PM 39.1575 -86.9511 241° Southwest 431 496 38,000  Level Indianapolis Center
Wed 09:02:45 PM 39.0997 -87.0864 241° Southwest 430 495 38,000  Level Indianapolis Center
Wed 09:03:47 PM 39.0408 -87.2200 240° Southwest 430 495 38,000  Level Indianapolis Center
Wed 09:04:48 PM 38.9725 -87.3808 241° Southwest 429 494 38,000  Level Indianapolis Center
Wed 09:05:49 PM 38.9144 -87.5131 241° Southwest 427 491 38,000  Level Indianapolis Center
Wed 09:06:50 PM 38.8572 -87.6419 240° Southwest 421 484 38,000  Level Indianapolis Center
Wed 09:07:52 PM 38.8014 -87.7703 241° Southwest 416 479 38,000  Level Indianapolis Center
Wed 09:08:53 PM 38.7458 -87.8958 240° Southwest 410 472 38,000  Level Indianapolis Center
Wed 09:09:32 PM 38.7119 -87.9728 241° Southwest 407 468 38,000  Level Kansas City Center
Wed 09:10:34 PM 38.6550 -88.1044 241° Southwest 418 481 38,000  Level Kansas City Center
Wed 09:11:37 PM 38.5933 -88.2411 240° Southwest 435 501 38,000  Level Kansas City Center
Wed 09:12:38 PM 38.5183 -88.4064 240° Southwest 446 513 38,000  Level Kansas City Center
Wed 09:13:39 PM 38.4567 -88.5447 240° Southwest 448 516 38,000  Level Kansas City Center
Wed 09:14:40 PM 38.3944 -88.6828 240° Southwest 449 517 38,000  Level Kansas City Center
Wed 09:15:42 PM 38.3319 -88.8175 239° Southwest 454 522 38,000  Level Kansas City Center
Wed 09:16:44 PM 38.2692 -88.9550 240° Southwest 450 518 38,000  Level Kansas City Center
Wed 09:17:44 PM 38.1983 -89.1100 240° Southwest 455 524 38,000  Level Kansas City Center
Wed 09:18:46 PM 38.1347 -89.2467 239° Southwest 452 520 38,000  Level Kansas City Center
Wed 09:19:49 PM 38.0675 -89.3942 240° Southwest 448 516 38,000  Level Kansas City Center
Wed 09:20:50 PM 38.0039 -89.5311 240° Southwest 449 517 38,000  Level Kansas City Center
Wed 09:21:50 PM 37.9400 -89.6683 239° Southwest 450 518 38,000  Level Kansas City Center
Wed 09:22:53 PM 37.8753 -89.8067 239° Southwest 455 524 38,000  Level Kansas City Center
Wed 09:23:54 PM 37.8092 -89.9464 239° Southwest 456 525 38,000  Level Kansas City Center
Wed 09:24:57 PM 37.7433 -90.0853 239° Southwest 456 525 38,000  Level Kansas City Center
Wed 09:25:57 PM 37.6775 -90.2253 239° Southwest 460 529 38,000  Level Kansas City Center
Wed 09:26:58 PM 37.6064 -90.3600 236° Southwest 461 531 38,000  Level Kansas City Center
Wed 09:27:58 PM 37.5367 -90.4906 236° Southwest 455 524 38,000  Level Kansas City Center
Wed 09:29:01 PM 37.4678 -90.6192 236° Southwest 447 514 38,000  Level Kansas City Center
Wed 09:30:03 PM 37.3989 -90.7447 235° Southwest 440 506 38,000  Level Kansas City Center
Wed 09:31:03 PM 37.3261 -90.8778 236° Southwest 434 499 38,000  Level Kansas City Center
Wed 09:32:07 PM 37.2581 -91.0042 236° Southwest 434 499 38,000  Level Kansas City Center
Wed 09:33:07 PM 37.1881 -91.1294 235° Southwest 436 502 38,000  Level Kansas City Center
Wed 09:34:08 PM 37.1225 -91.2503 236° Southwest 425 489 38,000  Level Kansas City Center
Wed 09:34:53 PM 37.0675 -91.3500 235° Southwest 436 502 38,000  Level Memphis Center
Wed 09:35:10 PM 37.0425 -91.3942 235° Southwest 419 482 38,000  Level Kansas City Center
Wed 09:36:11 PM 36.9772 -91.5131 236° Southwest 416 479 38,000  Level Kansas City Center
Wed 09:37:12 PM 36.9131 -91.6294 235° Southwest 409 471 38,000  Level Kansas City Center
Wed 09:37:53 PM 36.8725 -91.7028 235° Southwest 418 481 38,000  Level Memphis Center
Wed 09:38:53 PM 36.8044 -91.8236 235° Southwest 423 487 38,000  Level Memphis Center
Wed 09:39:53 PM 36.7386 -91.9414 235° Southwest 428 493 38,000  Level Memphis Center
Wed 09:40:53 PM 36.6722 -92.0644 236° Southwest 428 493 38,000  Level Memphis Center
Wed 09:41:53 PM 36.6061 -92.1844 236° Southwest 428 493 38,000  Level Memphis Center
Wed 09:42:53 PM 36.5397 -92.2992 234° Southwest 417 480 38,000  Level Memphis Center
Wed 09:43:53 PM 36.4753 -92.4164 236° Southwest 417 480 38,000  Level Memphis Center
Wed 09:44:53 PM 36.4108 -92.5256 234° Southwest 417 480 38,000  Level Memphis Center
Wed 09:45:53 PM 36.3464 -92.6397 235° Southwest 417 480 38,000  Level Memphis Center
Wed 09:46:53 PM 36.2794 -92.7539 234° Southwest 417 480 38,000  Level Memphis Center
Wed 09:47:53 PM 36.2169 -92.8653 235° Southwest 417 480 38,000  Level Memphis Center
Wed 09:48:53 PM 36.1519 -92.9764 234° Southwest 412 474 38,000  Level Memphis Center
Wed 09:49:53 PM 36.0872 -93.0872 234° Southwest 412 474 38,000  Level Memphis Center
Wed 09:50:53 PM 36.0242 -93.1956 234° Southwest 406 467 38,000  Level Memphis Center
Wed 09:51:53 PM 35.9611 -93.3061 235° Southwest 401 461 38,000  Level Memphis Center
Wed 09:52:53 PM 35.9025 -93.4092 235° Southwest 390 449 38,000  Level Memphis Center
Wed 09:53:53 PM 35.8417 -93.5092 233° Southwest 379 436 38,000 -500 Level Memphis Center
Wed 09:54:53 PM 35.7806 -93.6119 234° Southwest 374 430 37,000 -500 Descending Memphis Center
Wed 09:55:53 PM 35.7172 -93.7169 233° Southwest 379 436 37,000  Level Memphis Center
Wed 09:56:53 PM 35.6558 -93.8267 235° Southwest 384 442 37,000  Level Memphis Center
Wed 09:57:53 PM 35.5858 -93.9439 234° Southwest 390 449 37,000  Level Memphis Center
Wed 09:58:53 PM 35.5203 -94.0481 232° Southwest 390 449 37,000  Level Memphis Center
Wed 09:59:53 PM 35.4586 -94.1575 235° Southwest 390 449 37,000  Level Memphis Center
Wed 10:00:53 PM 35.3925 -94.2639 233° Southwest 395 455 37,000  Level Memphis Center
Wed 10:01:53 PM 35.3061 -94.3592 222° Southwest 405 466 37,000  Level Memphis Center
Wed 10:04:03 PM 35.1297 -94.5528 222° Southwest 415 478 37,000  Level Fort Worth Center
Wed 10:05:03 PM 35.0442 -94.6442 221° Southwest 433 498 37,000  Level Fort Worth Center
Wed 10:06:03 PM 34.9647 -94.7331 223° Southwest 415 478 37,000  Level Fort Worth Center
Wed 10:07:03 PM 34.8831 -94.8217 222° Southwest 392 451 37,000  Level Fort Worth Center
Wed 10:08:03 PM 34.7975 -94.9153 222° Southwest 360 414 37,000 -50 Level Fort Worth Center
Wed 10:09:03 PM 34.7117 -95.0061 221° Southwest 396 456 36,900 -850 Descending Fort Worth Center
Wed 10:10:03 PM 34.6278 -95.0969 222° Southwest 403 464 35,300 -1,600 Descending Fort Worth Center
Wed 10:11:03 PM 34.5500 -95.1772 220° Southwest 398 458 33,700 -1,600 Descending Fort Worth Center
Wed 10:12:03 PM 34.4742 -95.2622 223° Southwest 382 440 32,100 -1,550 Descending Fort Worth Center
Wed 10:13:03 PM 34.4467 -95.3586 251° West 319 367 30,600 -1,550 Descending Fort Worth Center
Wed 10:14:03 PM 34.4294 -95.4597 258° West 319 367 29,000 -1,600 Descending Fort Worth Center
Wed 10:15:03 PM 34.4017 -95.5611 252° West 312 359 27,400 -1,500 Descending Fort Worth Center
Wed 10:16:03 PM 34.3150 -95.6308 214° Southwest 317 365 26,000 -850 Descending Fort Worth Center
Wed 10:17:03 PM 34.2306 -95.6953 212° Southwest 345 397 25,700 -900 Descending Fort Worth Center
Wed 10:18:03 PM 34.1458 -95.7622 213° Southwest 359 413 24,200 -850 Descending Fort Worth Center
Wed 10:19:03 PM 34.0653 -95.8339 216° Southwest 371 427 24,000 -550 Descending Fort Worth Center
Wed 10:20:03 PM 33.9767 -95.9108 216° Southwest 383 441 23,100 -1,500 Descending Fort Worth Center
Wed 10:21:03 PM 33.8961 -95.9822 216° Southwest 378 435 21,000 -2,050 Descending Fort Worth Center
Wed 10:22:03 PM 33.8111 -96.0486 213° Southwest 372 428 19,000 -2,100 Descending Fort Worth Center
Wed 10:23:03 PM 33.7325 -96.1147 215° Southwest 356 410 16,800 -2,150 Descending Fort Worth Center
Wed 10:24:03 PM 33.6603 -96.1806 217° Southwest 344 396 14,700 -2,000 Descending Fort Worth Center
Wed 10:25:03 PM 33.5836 -96.2442 215° Southwest 338 389 12,800 -1,850 Descending Fort Worth Center
Wed 10:26:03 PM 33.5111 -96.3047 215° Southwest 338 389 11,000 -900 Descending Fort Worth Center
Wed 10:27:03 PM 33.4406 -96.3656 216° Southwest 333 383 11,000 -250 Level Fort Worth Center
Wed 10:28:03 PM 33.3786 -96.4258 219° Southwest 301 346 10,500 -1,150 Descending Fort Worth Center
Wed 10:29:03 PM 33.3289 -96.4836 224° Southwest 270 311 8,700 -1,750 Descending Fort Worth Center
Wed 10:30:03 PM 33.2958 -96.5536 241° Southwest 250 288 7,000 -1,650 Descending Fort Worth Center
Wed 10:31:03 PM 33.2694 -96.6308 248° West 250 288 5,400 -1,000 Descending Fort Worth Center
Wed 10:32:03 PM 33.2469 -96.7081 251° West 255 293 5,000 -200 Descending Fort Worth Center
Wed 10:33:03 PM 33.2222 -96.7853 249° West 249 287 5,000  Level Fort Worth Center
Wed 10:34:03 PM 33.1994 -96.8572 249° West 249 287 5,000 -350 Level Fort Worth Center
Wed 10:35:03 PM 33.1769 -96.9219 247° West 234 269 4,300 -1,000 Descending Fort Worth Center
Wed 10:36:03 PM 33.1436 -96.9717 231° Southwest 197 227 3,000 -650 Descending Fort Worth Center
Wed 10:37:03 PM 33.1019 -97.0067 215° Southwest 182 209 3,000  Level Fort Worth Center
Wed 10:37:22 PM 33.0833 -97.0167 204° Southwest 159 183 3,000  Level Dallas / Fort Worth TRACON
Wed 10:38:22 PM 33.0500 -97.0333 203° Southwest 137 158 3,000 -248 Level Dallas / Fort Worth TRACON
Wed 10:39:23 PM 33.0167 -97.0333 180° South 136 157 2,500 -492 Descending Dallas / Fort Worth TRACON

Login

Don't have an account? Register now (free) for customized features, flight alerts, and more!